Time;durP1;ratioP1;P1;durP2;ratioP2;P2;SDS_P1;SDS_P2;PMS_P1;PMS_P2;Temp;Humidity;BMP_temperature;BMP_pressure;BME280_temperature;BME280_humidity;BME280_pressure;Samples;Min_cycle;Max_cycle;Signal;HPM_P1;HPM_P2
2023/10/02 00:01:18;;;;;;;14.95;8.13;;;19.00;99.90;;;;;;4147466;28;20038;-67
2023/10/02 00:03:21;;;;;;;17.15;8.82;;;19.00;99.90;;;;;;4151705;28;20035;-67
2023/10/02 00:05:40;;;;;;;;;;;19.00;99.90;;;;;;4153591;28;20100;-67
2023/10/02 00:07:44;;;;;;;16.35;8.43;;;19.00;99.90;;;;;;4134340;28;20362;-67
2023/10/02 00:09:49;;;;;;;16.05;7.97;;;19.00;99.90;;;;;;4152531;28;20037;-67
2023/10/02 00:11:49;;;;;;;18.35;9.55;;;19.00;99.90;;;;;;4148986;28;20513;-67
2023/10/02 00:14:18;;;;;;;17.45;8.70;;;18.90;99.90;;;;;;4150752;28;20026;-68
2023/10/02 00:16:11;;;;;;;18.58;9.65;;;18.90;99.90;;;;;;4152094;28;20099;-67
2023/10/02 00:18:16;;;;;;;20.73;9.55;;;18.90;99.90;;;;;;4150314;28;20112;-67
2023/10/02 00:20:22;;;;;;;18.38;9.27;;;18.90;99.90;;;;;;4131203;28;20033;-67
2023/10/02 00:22:58;;;;;;;17.10;8.15;;;18.80;99.90;;;;;;4146048;28;20038;-67
2023/10/02 00:24:52;;;;;;;15.52;8.35;;;18.80;99.90;;;;;;4146259;28;20042;-66
2023/10/02 00:26:57;;;;;;;18.10;8.10;;;18.80;99.90;;;;;;4152504;28;20042;-67
2023/10/02 00:28:59;;;;;;;17.85;8.23;;;18.80;99.90;;;;;;4146776;28;20065;-67
2023/10/02 00:31:00;;;;;;;18.02;8.48;;;18.80;99.90;;;;;;4149429;28;20029;-67
2023/10/02 00:33:02;;;;;;;16.85;8.48;;;18.80;99.90;;;;;;4150673;28;20068;-67
2023/10/02 00:35:03;;;;;;;18.27;9.65;;;18.90;99.90;;;;;;4133280;28;20466;-67
2023/10/02 00:37:06;;;;;;;18.85;8.60;;;18.90;99.90;;;;;;4111555;28;20042;-72
2023/10/02 00:39:26;;;;;;;14.35;8.00;;;18.80;99.90;;;;;;4129942;28;20117;-72
2023/10/02 00:41:27;;;;;;;17.17;8.35;;;18.80;99.90;;;;;;4118827;28;20089;-73
2023/10/02 00:43:33;;;;;;;15.07;8.38;;;18.80;99.90;;;;;;4137223;28;20117;-72
2023/10/02 00:45:38;;;;;;;21.98;9.02;;;18.80;99.90;;;;;;4124856;28;20072;-72
2023/10/02 00:47:42;;;;;;;17.13;9.00;;;18.70;99.90;;;;;;4125569;28;20058;-72
2023/10/02 00:49:42;;;;;;;19.70;9.48;;;18.70;99.90;;;;;;4128624;28;20085;-72
2023/10/02 00:51:43;;;;;;;16.92;9.10;;;18.70;99.90;;;;;;4119838;28;20026;-73
2023/10/02 00:53:50;;;;;;;19.38;9.30;;;18.70;99.90;;;;;;4105232;28;20030;-72
2023/10/02 00:55:51;;;;;;;15.05;7.78;;;18.70;99.90;;;;;;4119196;28;20446;-72
2023/10/02 00:57:56;;;;;;;16.15;8.32;;;18.70;99.90;;;;;;4119152;28;20121;-73
2023/10/02 00:59:59;;;;;;;17.85;7.55;;;18.70;99.90;;;;;;4120021;28;20114;-72
2023/10/02 01:02:05;;;;;;;15.45;7.90;;;18.70;99.90;;;;;;4113958;28;20467;-72
2023/10/02 01:04:23;;;;;;;15.57;7.95;;;18.70;99.90;;;;;;4130448;28;20419;-72
2023/10/02 01:06:24;;;;;;;16.80;8.35;;;18.60;99.90;;;;;;4131811;28;20038;-72
2023/10/02 01:08:49;;;;;;;15.50;8.20;;;18.70;99.90;;;;;;4131118;28;20101;-72
2023/10/02 01:10:47;;;;;;;17.15;8.40;;;18.70;99.90;;;;;;4133074;28;20035;-73
2023/10/02 01:12:53;;;;;;;18.33;8.23;;;18.70;99.90;;;;;;4133398;28;20030;-72
2023/10/02 01:15:06;;;;;;;18.02;8.73;;;18.70;99.90;;;;;;4105749;28;20143;-72
2023/10/02 01:17:07;;;;;;;14.00;7.70;;;18.60;99.90;;;;;;4112902;28;20038;-71
2023/10/02 01:19:11;;;;;;;18.00;8.52;;;18.60;99.90;;;;;;4122933;28;20035;-72
2023/10/02 01:21:12;;;;;;;15.27;8.00;;;18.60;99.90;;;;;;4128288;28;20165;-72
2023/10/02 01:23:22;;;;;;;15.05;7.55;;;18.60;99.90;;;;;;4138078;28;20065;-72
2023/10/02 01:25:23;;;;;;;18.77;8.98;;;18.60;99.90;;;;;;4112781;28;20188;-73
2023/10/02 01:27:40;;;;;;;15.45;8.43;;;18.60;99.90;;;;;;4132426;28;20041;-72
2023/10/02 01:29:42;;;;;;;17.20;8.32;;;18.60;99.90;;;;;;4129655;28;20456;-72
2023/10/02 01:31:44;;;;;;;17.38;9.07;;;18.60;99.90;;;;;;4110833;28;20525;-72
2023/10/02 01:33:45;;;;;;;18.75;9.73;;;18.60;99.90;;;;;;4125198;28;20086;-72
2023/10/02 01:35:54;;;;;;;15.25;7.82;;;18.60;99.90;;;;;;4134639;28;20034;-72
2023/10/02 01:37:55;;;;;;;15.43;8.15;;;18.60;99.90;;;;;;4135389;28;20049;-72
2023/10/02 01:40:28;;;;;;;17.73;8.30;;;18.60;99.90;;;;;;4136059;28;20061;-72
2023/10/02 01:42:16;;;;;;;15.35;8.40;;;18.60;99.90;;;;;;4144702;28;20072;-72
2023/10/02 01:44:20;;;;;;;14.13;7.85;;;18.60;99.90;;;;;;4118397;28;20533;-72
2023/10/02 01:46:22;;;;;;;14.98;7.65;;;18.50;99.90;;;;;;4135865;28;20036;-72
2023/10/02 01:48:44;;;;;;;15.70;8.00;;;18.60;99.90;;;;;;4132513;28;20088;-67
2023/10/02 01:50:45;;;;;;;15.73;7.70;;;18.60;99.90;;;;;;4131041;28;20034;-67
2023/10/02 01:52:45;;;;;;;18.40;8.60;;;18.60;99.90;;;;;;4144460;28;20073;-67
2023/10/02 01:54:51;;;;;;;17.45;8.57;;;18.60;99.90;;;;;;4137861;28;20157;-67
2023/10/02 01:56:52;;;;;;;17.88;8.55;;;18.60;99.90;;;;;;4121653;28;20518;-67
2023/10/02 01:58:54;;;;;;;17.98;8.82;;;18.60;99.90;;;;;;4132642;28;20046;-67
2023/10/02 02:00:57;;;;;;;18.05;8.50;;;18.60;99.90;;;;;;4133446;28;20057;-67
2023/10/02 02:03:14;;;;;;;16.13;8.38;;;18.60;99.90;;;;;;4136589;28;20045;-67
2023/10/02 02:05:15;;;;;;;17.08;8.52;;;18.60;99.90;;;;;;4135146;28;20569;-67
2023/10/02 02:07:20;;;;;;;18.40;9.07;;;18.60;99.90;;;;;;4140341;28;20034;-67
2023/10/02 02:09:24;;;;;;;15.25;7.63;;;18.60;99.90;;;;;;4135237;28;20093;-67
2023/10/02 02:11:29;;;;;;;16.50;8.02;;;18.50;99.90;;;;;;4134138;28;20030;-67
2023/10/02 02:13:40;;;;;;;17.00;8.23;;;18.50;99.90;;;;;;4128702;28;20045;-68
2023/10/02 02:15:51;;;;;;;18.08;9.27;;;18.50;99.90;;;;;;4135418;28;20132;-67
2023/10/02 02:17:52;;;;;;;18.48;9.13;;;18.50;99.90;;;;;;4138221;28;20446;-67
2023/10/02 02:19:59;;;;;;;17.70;8.80;;;18.50;99.90;;;;;;4132290;28;20497;-67
2023/10/02 02:22:00;;;;;;;16.83;8.70;;;18.40;99.90;;;;;;4122392;28;20031;-67
2023/10/02 02:24:03;;;;;;;16.38;8.65;;;18.40;99.90;;;;;;4131859;28;20041;-68
2023/10/02 02:26:04;;;;;;;15.73;7.95;;;18.40;99.90;;;;;;4144034;28;20040;-68
2023/10/02 02:28:06;;;;;;;16.35;8.60;;;18.40;99.90;;;;;;4124396;28;20125;-67
2023/10/02 02:30:10;;;;;;;18.13;8.73;;;18.40;99.90;;;;;;4143777;28;20030;-68
2023/10/02 02:32:10;;;;;;;19.75;9.55;;;18.40;99.90;;;;;;4135338;28;20038;-67
2023/10/02 02:34:17;;;;;;;16.17;8.50;;;18.40;99.90;;;;;;4138935;28;20061;-67
2023/10/02 02:36:21;;;;;;;17.70;8.40;;;18.40;99.90;;;;;;4135834;28;20486;-67
2023/10/02 02:38:22;;;;;;;15.32;7.80;;;18.40;99.90;;;;;;4147681;28;20048;-67
2023/10/02 02:40:25;;;;;;;18.77;8.77;;;18.40;99.90;;;;;;4137196;28;20712;-67
2023/10/02 02:42:25;;;;;;;16.35;8.10;;;18.40;99.90;;;;;;4141174;28;20085;-67
2023/10/02 02:44:43;;;;;;;16.20;8.75;;;18.30;99.90;;;;;;4140084;28;20116;-67
2023/10/02 02:46:53;;;;;;;17.48;8.20;;;18.40;99.90;;;;;;4134387;28;20031;-67
2023/10/02 02:48:56;;;;;;;17.60;8.98;;;18.30;99.90;;;;;;4135634;28;20792;-67
2023/10/02 02:51:14;;;;;;;20.45;9.27;;;18.30;99.90;;;;;;4158082;28;20490;-67
2023/10/02 02:53:30;;;;;;;17.13;8.85;;;18.20;99.90;;;;;;4141892;28;20471;-67
2023/10/02 02:55:30;;;;;;;19.33;8.82;;;18.20;99.90;;;;;;4130249;28;20473;-67
2023/10/02 02:57:33;;;;;;;16.95;8.82;;;18.20;99.90;;;;;;4147062;28;20034;-67
2023/10/02 02:59:38;;;;;;;17.48;9.10;;;18.20;99.90;;;;;;4150234;28;20690;-71
2023/10/02 03:01:40;;;;;;;19.50;9.30;;;18.20;99.90;;;;;;4137840;28;20494;-73
2023/10/02 03:03:42;;;;;;;17.95;8.75;;;18.20;99.90;;;;;;4138083;28;20030;-73
2023/10/02 03:05:43;;;;;;;20.00;9.05;;;18.20;99.90;;;;;;4138040;28;20038;-73
2023/10/02 03:07:44;;;;;;;18.23;9.60;;;18.10;99.90;;;;;;4140257;28;20041;-73
2023/10/02 03:09:45;;;;;;;21.88;9.70;;;18.10;99.90;;;;;;4143994;28;20088;-73
2023/10/02 03:11:46;;;;;;;19.30;9.68;;;18.10;99.90;;;;;;4130711;28;20031;-73
2023/10/02 03:13:50;;;;;;;18.10;8.75;;;18.10;99.90;;;;;;4139117;28;20034;-73
2023/10/02 03:15:50;;;;;;;22.20;10.23;;;18.00;99.90;;;;;;4134863;28;20041;-73
2023/10/02 03:17:51;;;;;;;17.73;8.63;;;18.00;99.90;;;;;;4142734;28;20034;-73
2023/10/02 03:19:52;;;;;;;18.92;8.90;;;18.00;99.90;;;;;;4135511;28;20026;-73
2023/10/02 03:22:01;;;;;;;16.75;8.15;;;18.00;99.90;;;;;;4133873;28;20027;-73
2023/10/02 03:24:02;;;;;;;19.67;9.07;;;18.00;99.90;;;;;;4136415;28;20434;-73
2023/10/02 03:26:07;;;;;;;17.80;8.73;;;18.00;99.90;;;;;;4143638;28;20061;-72
2023/10/02 03:30:40;;;;;;;20.63;9.88;;;18.00;99.90;;;;;;4133636;28;20117;-73
2023/10/02 03:32:45;;;;;;;18.40;9.05;;;17.90;99.90;;;;;;4150401;28;20034;-73
2023/10/02 03:35:02;;;;;;;20.58;9.82;;;18.00;99.90;;;;;;4140080;28;20132;-73
2023/10/02 03:39:23;;;;;;;19.52;9.75;;;17.90;99.90;;;;;;4133726;28;20037;-73
2023/10/02 03:41:44;;;;;;;21.05;10.00;;;17.90;99.90;;;;;;4122148;28;20034;-73
2023/10/02 03:43:46;;;;;;;18.25;8.95;;;17.90;99.90;;;;;;4135028;28;20033;-73
2023/10/02 03:45:51;;;;;;;19.88;10.32;;;17.80;99.90;;;;;;4140659;28;20463;-73
2023/10/02 03:48:02;;;;;;;23.40;10.25;;;17.90;99.90;;;;;;4137185;28;20125;-73
2023/10/02 03:50:06;;;;;;;20.70;9.82;;;17.80;99.90;;;;;;4139603;28;20518;-72
2023/10/02 03:52:07;;;;;;;23.88;10.75;;;17.80;99.90;;;;;;4132226;28;20096;-72
2023/10/02 03:54:18;;;;;;;19.52;9.55;;;17.80;99.90;;;;;;4136981;28;20034;-73
2023/10/02 03:56:42;;;;;;;18.65;9.43;;;17.70;99.90;;;;;;4128515;28;20041;-73
2023/10/02 03:58:43;;;;;;;20.10;10.05;;;17.80;99.90;;;;;;4149145;28;20076;-73
2023/10/02 04:00:44;;;;;;;23.42;9.55;;;17.80;99.90;;;;;;4115844;28;20496;-73
2023/10/02 04:02:47;;;;;;;19.83;8.60;;;17.70;99.90;;;;;;4117677;28;20072;-73
2023/10/02 04:04:48;;;;;;;23.17;10.45;;;17.70;99.90;;;;;;4133214;28;20483;-73
2023/10/02 04:06:55;;;;;;;22.80;9.52;;;17.70;99.90;;;;;;4134114;28;20041;-73
2023/10/02 04:09:06;;;;;;;21.25;10.73;;;17.70;99.90;;;;;;4136563;28;20038;-72
2023/10/02 04:11:09;;;;;;;21.05;10.07;;;17.70;99.90;;;;;;4126841;28;20038;-71
2023/10/02 04:13:12;;;;;;;16.23;8.70;;;17.70;99.90;;;;;;4140405;28;20053;-71
2023/10/02 04:15:12;;;;;;;23.20;9.55;;;17.70;99.90;;;;;;4140686;28;20038;-72
2023/10/02 04:19:16;;;;;;;19.33;9.82;;;17.70;99.90;;;;;;4141658;28;20674;-71
2023/10/02 04:21:25;;;;;;;23.10;10.00;;;17.70;99.90;;;;;;4133450;28;20030;-71
2023/10/02 04:23:25;;;;;;;20.30;9.63;;;17.70;99.90;;;;;;4138534;28;20533;-71
2023/10/02 04:25:35;;;;;;;19.27;9.18;;;17.70;99.90;;;;;;4137486;28;20160;-71
2023/10/02 04:30:19;;;;;;;20.65;10.32;;;17.60;99.90;;;;;;4135425;28;20414;-71
2023/10/02 04:32:14;;;;;;;19.33;9.90;;;17.60;99.90;;;;;;4135510;28;20430;-71
2023/10/02 04:34:29;;;;;;;20.52;9.45;;;17.70;99.90;;;;;;4132611;28;20517;-71
2023/10/02 04:36:34;;;;;;;23.13;9.98;;;17.60;99.90;;;;;;4148677;28;20474;-71
2023/10/02 04:38:49;;;;;;;24.27;10.95;;;17.60;99.90;;;;;;4149353;28;20052;-71
2023/10/02 04:40:51;;;;;;;20.98;9.80;;;17.60;99.90;;;;;;4146630;28;20037;-71
2023/10/02 04:42:57;;;;;;;22.92;10.38;;;17.60;99.90;;;;;;4137485;28;20057;-72
2023/10/02 04:44:58;;;;;;;23.60;10.65;;;17.60;99.90;;;;;;4152538;28;20037;-72
2023/10/02 04:47:00;;;;;;;19.40;9.25;;;17.60;99.90;;;;;;4141555;28;20467;-71
2023/10/02 04:49:01;;;;;;;21.17;10.52;;;17.60;99.90;;;;;;4145857;28;20041;-71
2023/10/02 04:51:08;;;;;;;17.30;9.05;;;17.50;99.90;;;;;;4149469;28;20025;-71
2023/10/02 04:55:25;;;;;;;22.75;10.52;;;17.50;99.90;;;;;;4127858;28;20510;-71
2023/10/02 04:57:26;;;;;;;19.00;10.10;;;17.50;99.90;;;;;;4134016;28;20491;-71
2023/10/02 04:59:50;;;;;;;21.80;10.60;;;17.40;99.90;;;;;;4127659;28;20029;-71
2023/10/02 05:02:17;;;;;;;22.98;10.80;;;17.50;99.90;;;;;;4135936;28;20022;-71
2023/10/02 05:04:16;;;;;;;20.77;10.15;;;17.50;99.90;;;;;;4119724;28;20411;-71
2023/10/02 05:06:39;;;;;;;22.48;10.25;;;17.40;99.90;;;;;;4131835;28;20042;-71
2023/10/02 05:08:40;;;;;;;20.70;9.80;;;17.40;99.90;;;;;;4135330;28;20045;-71
2023/10/02 05:10:42;;;;;;;21.05;10.93;;;17.40;99.90;;;;;;4132442;28;20536;-72
2023/10/02 05:12:44;;;;;;;21.65;10.18;;;17.40;99.90;;;;;;4134766;28;20109;-71
2023/10/02 05:14:51;;;;;;;24.35;10.27;;;17.30;99.90;;;;;;4132100;28;20038;-71
2023/10/02 05:16:53;;;;;;;25.13;11.15;;;17.40;99.90;;;;;;4135450;28;20054;-71
2023/10/02 05:18:54;;;;;;;24.42;10.75;;;17.30;99.90;;;;;;4140469;28;20029;-71
2023/10/02 05:20:55;;;;;;;22.08;10.32;;;17.30;99.90;;;;;;4130865;28;20107;-71
2023/10/02 05:22:58;;;;;;;21.92;10.18;;;17.30;99.90;;;;;;4153180;28;20045;-71
2023/10/02 05:25:04;;;;;;;29.23;11.60;;;17.20;99.90;;;;;;4130831;28;20117;-71
2023/10/02 05:27:04;;;;;;;25.38;11.27;;;17.30;99.90;;;;;;4130402;28;20041;-71
2023/10/02 05:29:09;;;;;;;22.33;10.80;;;17.20;99.90;;;;;;4135519;28;20035;-71
2023/10/02 05:31:12;;;;;;;20.92;9.73;;;17.20;99.90;;;;;;4116440;28;20046;-71
2023/10/02 05:33:16;;;;;;;21.92;9.80;;;17.20;99.90;;;;;;4131069;28;20160;-71
2023/10/02 05:35:18;;;;;;;25.23;10.35;;;17.30;99.90;;;;;;4149626;28;20558;-71
2023/10/02 05:37:23;;;;;;;18.15;9.40;;;17.30;99.90;;;;;;4124454;28;20130;-71
2023/10/02 05:39:42;;;;;;;20.92;10.20;;;17.20;99.90;;;;;;4129979;28;20042;-71
2023/10/02 05:41:46;;;;;;;22.25;9.88;;;17.30;99.90;;;;;;4150430;28;20030;-71
2023/10/02 05:43:55;;;;;;;22.33;10.07;;;17.30;99.90;;;;;;4135516;28;20487;-71
2023/10/02 05:45:56;;;;;;;18.33;10.00;;;17.30;99.90;;;;;;4134522;28;20406;-71
2023/10/02 05:47:56;;;;;;;24.63;11.68;;;17.30;99.90;;;;;;4130870;28;20030;-71
2023/10/02 05:49:57;;;;;;;31.48;11.60;;;17.30;99.90;;;;;;4134065;28;20033;-71
2023/10/02 05:52:00;;;;;;;23.40;10.38;;;17.30;99.90;;;;;;4124581;28;20033;-71
2023/10/02 05:54:01;;;;;;;21.92;10.80;;;17.30;99.90;;;;;;4137633;28;20402;-71
2023/10/02 05:56:05;;;;;;;23.42;10.15;;;17.30;99.90;;;;;;4147369;28;20029;-71
2023/10/02 05:58:06;;;;;;;22.17;10.63;;;17.40;99.90;;;;;;4131575;28;20038;-71
2023/10/02 06:00:16;;;;;;;20.17;10.48;;;17.30;99.90;;;;;;4128607;28;20038;-71
2023/10/02 06:02:22;;;;;;;24.27;11.65;;;17.40;99.90;;;;;;4133911;28;20035;-70
2023/10/02 06:04:23;;;;;;;23.38;11.05;;;17.30;99.90;;;;;;4134831;28;20042;-70
2023/10/02 06:06:25;;;;;;;20.77;10.80;;;17.30;99.90;;;;;;4140134;28;20068;-70
2023/10/02 06:08:32;;;;;;;23.87;10.13;;;17.30;99.90;;;;;;4140221;28;20049;-71
2023/10/02 06:10:34;;;;;;;24.02;11.18;;;17.40;99.90;;;;;;4144991;28;20049;-70
2023/10/02 06:12:42;;;;;;;23.42;12.15;;;17.30;99.90;;;;;;4144039;28;20530;-71
2023/10/02 06:14:43;;;;;;;22.80;10.63;;;17.20;99.90;;;;;;4151981;28;20034;-71
2023/10/02 06:16:47;;;;;;;20.23;9.80;;;17.20;99.90;;;;;;4132969;28;20529;-70
2023/10/02 06:19:00;;;;;;;23.25;10.95;;;17.30;99.90;;;;;;4140078;28;20050;-71
2023/10/02 06:21:01;;;;;;;23.17;10.80;;;17.40;99.90;;;;;;4130219;28;20046;-70
2023/10/02 06:23:19;;;;;;;23.80;11.10;;;17.30;99.90;;;;;;4142053;28;20117;-70
2023/10/02 06:25:20;;;;;;;21.20;10.02;;;17.40;99.90;;;;;;4137958;28;20049;-70
2023/10/02 06:27:24;;;;;;;22.08;10.75;;;17.40;99.90;;;;;;4139213;28;20032;-66
2023/10/02 06:29:29;;;;;;;25.73;11.40;;;17.30;99.90;;;;;;4144166;28;20049;-71
2023/10/02 06:31:41;;;;;;;22.00;10.88;;;17.40;99.90;;;;;;4143939;28;20033;-71
2023/10/02 06:33:44;;;;;;;25.35;11.15;;;17.40;99.90;;;;;;4131084;28;20031;-71
2023/10/02 06:35:56;;;;;;;23.58;11.07;;;17.40;99.90;;;;;;4149612;28;20026;-70
2023/10/02 06:38:06;;;;;;;21.45;10.35;;;17.40;99.90;;;;;;4137245;28;20511;-71
2023/10/02 06:40:16;;;;;;;22.80;10.98;;;17.40;99.90;;;;;;4138922;28;20052;-70
2023/10/02 06:42:17;;;;;;;22.95;11.20;;;17.50;99.90;;;;;;4141626;28;20026;-69
2023/10/02 06:44:18;;;;;;;22.27;10.68;;;17.60;99.90;;;;;;4137056;28;20446;-69
2023/10/02 06:46:19;;;;;;;21.35;10.52;;;17.60;99.90;;;;;;4135453;28;20026;-69
2023/10/02 06:48:20;;;;;;;28.52;11.75;;;17.80;99.90;;;;;;4136995;28;20040;-68
2023/10/02 06:50:27;;;;;;;26.30;11.68;;;17.90;99.90;;;;;;4136435;28;20033;-68
2023/10/02 06:52:29;;;;;;;24.65;11.98;;;17.90;99.90;;;;;;4131556;28;20034;-69
2023/10/02 06:54:33;;;;;;;23.58;10.90;;;18.10;99.90;;;;;;4143423;28;20759;-69
2023/10/02 06:56:34;;;;;;;24.73;11.40;;;18.20;99.90;;;;;;4145972;28;20033;-69
2023/10/02 06:58:46;;;;;;;24.05;10.13;;;18.30;99.90;;;;;;4153240;28;20379;-69
2023/10/02 07:01:01;;;;;;;20.45;9.63;;;18.50;99.90;;;;;;4145247;28;20033;-69
2023/10/02 07:03:03;;;;;;;20.48;10.18;;;18.60;99.90;;;;;;4138342;28;20048;-69
2023/10/02 07:05:10;;;;;;;23.50;11.70;;;18.80;99.90;;;;;;4129248;28;20030;-69
2023/10/02 07:07:12;;;;;;;20.95;10.50;;;18.80;99.90;;;;;;4137519;28;20045;-69
2023/10/02 07:09:14;;;;;;;20.98;9.40;;;18.90;99.90;;;;;;4138635;28;20140;-69
2023/10/02 07:11:18;;;;;;;23.42;10.35;;;19.10;99.90;;;;;;4144523;28;20036;-69
2023/10/02 07:13:20;;;;;;;23.65;10.68;;;19.20;99.90;;;;;;4150591;28;20038;-69
2023/10/02 07:15:22;;;;;;;22.13;11.30;;;19.30;99.90;;;;;;4136063;28;20028;-69
2023/10/02 07:17:23;;;;;;;17.45;9.27;;;19.50;99.90;;;;;;4138838;28;20029;-68
2023/10/02 07:19:38;;;;;;;20.92;10.40;;;19.60;99.90;;;;;;4131475;28;20415;-69
2023/10/02 07:21:40;;;;;;;18.88;9.63;;;19.70;99.90;;;;;;4145683;28;20367;-68
2023/10/02 07:23:40;;;;;;;22.70;9.80;;;19.90;99.90;;;;;;4136648;28;20030;-68
2023/10/02 07:25:50;;;;;;;19.10;9.07;;;20.10;99.90;;;;;;4135954;28;20026;-68
2023/10/02 07:27:51;;;;;;;21.65;10.07;;;20.20;99.90;;;;;;4149496;28;20172;-68
2023/10/02 07:30:03;;;;;;;20.20;9.73;;;20.50;99.90;;;;;;4142661;28;20030;-68
2023/10/02 07:32:05;;;;;;;17.30;9.02;;;20.70;99.90;;;;;;4135317;28;20406;-69
2023/10/02 07:34:08;;;;;;;19.92;10.48;;;20.90;99.90;;;;;;4140705;28;20076;-69
2023/10/02 07:36:14;;;;;;;22.83;10.02;;;21.00;99.90;;;;;;4138706;28;20037;-69
2023/10/02 07:38:14;;;;;;;20.95;9.80;;;21.30;99.90;;;;;;4136361;28;20121;-65
2023/10/02 07:40:15;;;;;;;22.77;10.23;;;21.50;99.90;;;;;;4134907;28;20425;-65
2023/10/02 07:42:16;;;;;;;20.52;10.38;;;21.70;99.90;;;;;;4137814;28;20061;-65
2023/10/02 07:44:16;;;;;;;20.25;9.95;;;21.80;99.90;;;;;;4145454;28;20037;-65
2023/10/02 07:46:21;;;;;;;19.25;9.75;;;21.90;99.90;;;;;;4154083;28;20038;-65
2023/10/02 07:48:25;;;;;;;21.83;10.65;;;22.10;99.90;;;;;;4138495;28;20026;-65
2023/10/02 07:50:33;;;;;;;20.83;10.68;;;22.30;99.90;;;;;;4137587;28;20033;-65
2023/10/02 07:52:38;;;;;;;21.25;10.40;;;22.50;99.90;;;;;;4139283;28;20043;-66
2023/10/02 07:54:45;;;;;;;21.33;10.18;;;22.70;99.90;;;;;;4140776;28;20087;-65
2023/10/02 07:56:47;;;;;;;24.42;10.55;;;22.80;99.90;;;;;;4149667;28;20045;-65
2023/10/02 07:58:54;;;;;;;;;;;22.80;99.90;;;;;;4151863;28;20105;-65
2023/10/02 08:00:55;;;;;;;20.67;10.45;;;22.90;99.90;;;;;;4147985;28;19924;-66
2023/10/02 08:02:56;;;;;;;21.40;10.75;;;23.00;99.90;;;;;;4140054;28;20553;-66
2023/10/02 08:04:59;;;;;;;19.58;10.02;;;23.20;99.90;;;;;;4146084;28;20033;-66
2023/10/02 08:07:00;;;;;;;18.77;9.95;;;23.30;99.90;;;;;;4121649;28;20034;-65
2023/10/02 08:11:25;;;;;;;19.92;9.98;;;23.50;99.90;;;;;;4146924;28;20125;-65
2023/10/02 08:13:35;;;;;;;21.52;10.13;;;23.60;99.90;;;;;;4142867;28;20462;-66
2023/10/02 08:15:40;;;;;;;21.23;10.60;;;23.60;99.90;;;;;;4134583;28;20105;-66
2023/10/02 08:19:54;;;;;;;19.48;9.35;;;23.60;99.90;;;;;;4140256;28;20041;-66
2023/10/02 08:21:55;;;;;;;17.48;9.43;;;23.70;99.90;;;;;;4138947;28;20815;-67
2023/10/02 08:23:56;;;;;;;18.23;9.52;;;23.80;99.90;;;;;;4145238;28;20153;-66
2023/10/02 08:26:05;;;;;;;17.45;9.43;;;23.80;99.90;;;;;;4151448;28;20064;-65
2023/10/02 08:28:07;;;;;;;19.38;9.82;;;23.90;99.90;;;;;;4148459;28;20080;-66
2023/10/02 08:30:26;;;;;;;21.73;10.20;;;23.90;99.90;;;;;;4146032;28;20049;-66
2023/10/02 08:32:30;;;;;;;20.45;10.13;;;23.80;99.90;;;;;;4137029;28;20415;-66
2023/10/02 08:34:31;;;;;;;22.35;10.05;;;23.80;99.90;;;;;;4139675;28;20559;-65
2023/10/02 08:36:32;;;;;;;20.85;10.27;;;23.90;99.90;;;;;;4139264;28;20117;-66
2023/10/02 08:38:34;;;;;;;21.08;10.85;;;23.80;99.90;;;;;;4135158;28;20026;-65
2023/10/02 08:40:39;;;;;;;19.50;9.90;;;23.90;99.90;;;;;;4136307;28;20030;-65
2023/10/02 08:42:46;;;;;;;22.88;10.35;;;23.90;99.90;;;;;;4131987;28;20096;-65
2023/10/02 08:44:49;;;;;;;20.83;10.27;;;23.90;99.90;;;;;;4111909;28;20050;-65
2023/10/02 08:46:50;;;;;;;18.38;10.07;;;24.00;99.90;;;;;;4147858;28;20038;-65
2023/10/02 08:48:57;;;;;;;19.25;9.93;;;23.90;99.90;;;;;;4128585;28;20049;-71
2023/10/02 08:50:58;;;;;;;22.27;10.88;;;24.00;99.90;;;;;;4135296;28;20049;-70
2023/10/02 08:53:04;;;;;;;19.40;10.50;;;24.00;99.90;;;;;;4115900;28;20038;-70
2023/10/02 08:55:33;;;;;;;21.35;10.02;;;24.10;99.90;;;;;;4123639;28;20042;-70
2023/10/02 08:57:49;;;;;;;19.70;9.30;;;24.10;99.90;;;;;;4130456;28;20041;-70
2023/10/02 09:00:00;;;;;;;22.67;10.95;;;24.10;99.90;;;;;;4124230;28;20030;-70
2023/10/02 09:02:08;;;;;;;18.75;9.07;;;24.20;99.90;;;;;;4133830;28;20076;-70
2023/10/02 09:06:36;;;;;;;22.23;9.98;;;24.30;99.90;;;;;;4130646;28;20076;-69
2023/10/02 09:09:13;;;;;;;20.20;11.00;;;24.30;99.90;;;;;;4139109;28;20164;-69
2023/10/02 09:11:06;;;;;;;23.00;11.32;;;24.30;99.90;;;;;;4131638;28;20045;-70
2023/10/02 09:13:14;;;;;;;21.52;11.48;;;24.30;99.90;;;;;;4133585;28;20028;-70
2023/10/02 09:15:29;;;;;;;25.25;11.40;;;24.20;99.90;;;;;;4134516;28;20034;-70
2023/10/02 09:17:45;;;;;;;21.77;10.30;;;24.20;99.90;;;;;;4141448;28;20050;-70
2023/10/02 09:20:03;;;;;;;25.98;12.10;;;24.30;99.90;;;;;;4116831;28;20399;-69
2023/10/02 09:22:07;;;;;;;19.75;9.55;;;24.30;99.90;;;;;;4136016;28;20034;-70
2023/10/02 09:24:18;;;;;;;19.38;9.38;;;24.30;99.90;;;;;;4119573;28;20677;-69
2023/10/02 09:26:23;;;;;;;21.45;10.35;;;24.30;99.90;;;;;;4120197;28;20038;-70
2023/10/02 09:28:40;;;;;;;18.70;9.80;;;24.30;99.90;;;;;;4138515;28;20034;-70
2023/10/02 09:30:41;;;;;;;18.20;9.13;;;24.30;99.90;;;;;;4133155;28;20426;-70
2023/10/02 09:32:49;;;;;;;18.88;9.02;;;24.30;99.90;;;;;;4138274;28;20026;-70
2023/10/02 09:35:11;;;;;;;21.08;10.30;;;24.40;99.90;;;;;;4135958;28;20042;-70
2023/10/02 09:37:12;;;;;;;22.02;11.05;;;24.50;99.90;;;;;;4136452;28;20058;-70
2023/10/02 09:41:32;;;;;;;21.00;10.57;;;24.50;99.90;;;;;;4131121;28;20036;-70
2023/10/02 09:43:35;;;;;;;20.97;10.97;;;24.40;99.90;;;;;;4146663;28;20149;-70
2023/10/02 09:45:39;;;;;;;21.67;10.10;;;24.40;99.90;;;;;;4152215;28;20025;-69
2023/10/02 09:47:42;;;;;;;22.70;10.82;;;24.50;99.90;;;;;;4149602;28;20033;-69
2023/10/02 09:50:10;;;;;;;22.77;11.02;;;24.50;99.90;;;;;;4152359;28;20117;-70
2023/10/02 09:52:16;;;;;;;22.00;10.60;;;24.50;99.90;;;;;;4152143;28;20115;-70
2023/10/02 09:54:28;;;;;;;25.17;11.00;;;24.50;99.90;;;;;;4155898;28;20112;-70
2023/10/02 09:57:04;;;;;;;18.05;10.23;;;24.50;99.90;;;;;;4135761;28;20042;-69
2023/10/02 09:59:17;;;;;;;22.08;10.68;;;24.50;99.90;;;;;;4136333;28;20418;-65
2023/10/02 10:03:31;;;;;;;21.33;10.40;;;24.50;99.90;;;;;;4137262;28;20471;-66
2023/10/02 10:05:56;;;;;;;23.02;11.13;;;24.50;99.90;;;;;;4132514;28;20038;-66
2023/10/02 10:08:18;;;;;;;20.65;10.20;;;24.60;99.90;;;;;;4141960;28;20025;-70
2023/10/02 10:10:58;;;;;;;21.10;10.85;;;24.70;99.90;;;;;;4130601;28;20061;-70
2023/10/02 10:13:12;;;;;;;22.63;10.38;;;24.80;99.90;;;;;;4128783;28;20049;-69
2023/10/02 10:15:29;;;;;;;18.63;8.88;;;24.90;99.90;;;;;;4117454;28;20118;-71
2023/10/02 10:20:09;;;;;;;20.70;10.73;;;25.10;99.90;;;;;;4094467;28;20061;-71
2023/10/02 10:22:35;;;;;;;24.98;11.52;;;25.10;99.90;;;;;;4143186;28;20038;-70
2023/10/02 10:24:55;;;;;;;24.25;11.50;;;25.10;99.90;;;;;;4132475;28;20430;-69
2023/10/02 10:26:55;;;;;;;22.05;10.50;;;25.00;99.90;;;;;;4134489;28;20038;-71
2023/10/02 10:28:56;;;;;;;21.13;11.23;;;25.10;99.90;;;;;;4136555;28;20483;-71
2023/10/02 10:31:01;;;;;;;19.73;10.33;;;25.10;99.90;;;;;;4139380;28;20030;-71
2023/10/02 10:35:12;;;;;;;22.48;11.27;;;25.10;99.90;;;;;;4148072;28;21179;-72
2023/10/02 10:37:46;;;;;;;20.77;11.30;;;25.10;99.90;;;;;;4151284;28;20064;-71
2023/10/02 10:39:54;;;;;;;22.60;11.10;;;25.10;99.90;;;;;;4130110;28;20395;-71
2023/10/02 10:42:00;;;;;;;21.58;9.93;;;25.10;99.90;;;;;;4120112;28;20031;-71
2023/10/02 10:44:06;;;;;;;25.52;12.32;;;25.20;99.90;;;;;;4134482;28;20495;-69
2023/10/02 10:46:12;;;;;;;23.88;11.95;;;25.10;99.90;;;;;;4134657;28;20037;-70
2023/10/02 10:48:21;;;;;;;21.30;10.23;;;25.10;99.90;;;;;;4133882;28;20037;-70
2023/10/02 10:50:29;;;;;;;19.48;10.27;;;25.10;99.90;;;;;;4136771;28;20533;-71
2023/10/02 10:52:38;;;;;;;19.15;9.55;;;25.10;99.90;;;;;;4135446;28;20034;-71
2023/10/02 10:54:41;;;;;;;21.52;10.68;;;25.10;99.90;;;;;;4139863;28;20491;-69
2023/10/02 10:57:21;;;;;;;21.95;10.73;;;25.20;99.90;;;;;;4131627;28;20035;-70
2023/10/02 10:59:24;;;;;;;20.38;10.88;;;25.20;99.90;;;;;;4139784;28;20105;-70
2023/10/02 11:01:25;;;;;;;18.20;9.52;;;25.20;99.90;;;;;;4131230;28;20065;-70
2023/10/02 11:03:30;;;;;;;21.77;10.88;;;25.20;99.90;;;;;;4135597;28;20035;-70
2023/10/02 11:05:33;;;;;;;20.95;11.05;;;25.20;99.90;;;;;;4131957;28;20393;-69
2023/10/02 11:07:37;;;;;;;20.02;10.20;;;25.20;99.90;;;;;;4138295;28;20487;-70
2023/10/02 11:09:41;;;;;;;18.50;9.57;;;25.30;99.90;;;;;;4119890;28;20019;-70
2023/10/02 11:11:49;;;;;;;22.27;10.50;;;25.30;99.90;;;;;;4137535;28;20510;-71
2023/10/02 11:13:51;;;;;;;23.08;11.85;;;25.20;99.90;;;;;;4136327;28;20062;-70